Time;durP1;ratioP1;P1;durP2;ratioP2;P2;SDS_P1;SDS_P2;PMS_P1;PMS_P2;Temp;Humidity;BMP_temperature;BMP_pressure;BME280_temperature;BME280_humidity;BME280_pressure;Samples;Min_cycle;Max_cycle;Signal;HPM_P1;HPM_P2
2022/05/03 00:01:27;;;;;;;2.50;2.30;;;;;;;19.41;46.20;96698.84;10337269;28;20038;-50
2022/05/03 00:07:13;;;;;;;2.88;2.17;;;;;;;19.40;46.40;96695.31;10307109;28;20394;-52
2022/05/03 00:12:35;;;;;;;2.85;2.65;;;;;;;19.41;46.21;96693.44;10328555;28;20109;-50
2022/05/03 00:17:54;;;;;;;4.82;2.80;;;;;;;19.39;46.30;96687.56;10329578;28;20055;-50
2022/05/03 00:23:15;;;;;;;2.83;2.53;;;;;;;19.39;46.16;96695.69;10334152;28;20049;-50
2022/05/03 00:28:35;;;;;;;2.50;2.25;;;;;;;19.38;46.33;96683.28;10325439;28;20054;-50
2022/05/03 00:33:57;;;;;;;2.72;2.47;;;;;;;19.38;46.19;96694.84;10333428;28;20069;-52
2022/05/03 00:39:16;;;;;;;2.60;2.35;;;;;;;19.37;46.15;96690.59;10328333;28;20055;-52
2022/05/03 00:45:02;;;;;;;2.72;2.35;;;;;;;19.35;46.20;96690.13;10329202;28;20486;-53
2022/05/03 00:50:57;;;;;;;2.50;2.30;;;;;;;19.35;46.26;96684.72;10330631;28;20039;-52
2022/05/03 00:56:29;;;;;;;2.63;2.42;;;;;;;19.36;46.25;96689.00;10355643;28;20477;-52
2022/05/03 01:02:15;;;;;;;3.53;2.40;;;;;;;19.34;46.29;96686.59;10354953;28;20061;-51
2022/05/03 01:07:55;;;;;;;2.63;2.42;;;;;;;19.33;46.24;96684.25;10347859;28;20045;-52
2022/05/03 01:13:30;;;;;;;2.67;2.47;;;;;;;19.32;46.20;96683.44;10316905;28;20066;-50
2022/05/03 01:19:21;;;;;;;2.78;2.40;;;;;;;19.32;46.32;96679.97;10330320;28;20046;-52
2022/05/03 01:24:54;;;;;;;2.97;2.60;;;;;;;19.32;46.22;96682.66;10315693;28;20055;-51
2022/05/03 01:30:14;;;;;;;2.83;2.58;;;;;;;19.32;46.31;96685.34;10306621;28;20054;-51
2022/05/03 01:35:37;;;;;;;2.33;2.13;;;;;;;19.31;46.17;96681.09;10317101;28;20042;-52
2022/05/03 01:41:07;;;;;;;2.65;2.45;;;;;;;19.30;46.05;96668.69;10327287;28;20046;-51
2022/05/03 01:46:31;;;;;;;2.50;2.30;;;;;;;19.29;46.01;96678.72;10319964;28;20061;-52
2022/05/03 01:52:14;;;;;;;2.78;2.58;;;;;;;19.29;46.15;96677.94;10335309;28;20035;-50
2022/05/03 01:57:52;;;;;;;2.70;2.50;;;;;;;19.29;46.03;96673.31;10303241;28;20138;-52
2022/05/03 02:03:25;;;;;;;2.67;2.35;;;;;;;19.27;46.08;96670.13;10324163;28;20050;-51
2022/05/03 02:08:57;;;;;;;2.78;2.58;;;;;;;19.27;46.11;96666.66;10341732;28;20043;-50
2022/05/03 02:14:48;;;;;;;2.53;2.33;;;;;;;19.26;46.17;96665.84;10316692;28;20069;-50
2022/05/03 02:20:35;;;;;;;2.50;2.30;;;;;;;19.26;46.17;96665.06;10331268;28;20038;-52
2022/05/03 02:26:24;;;;;;;2.80;2.60;;;;;;;19.26;46.13;96665.06;10323405;28;20518;-53
2022/05/03 02:32:02;;;;;;;2.67;2.47;;;;;;;19.24;46.12;96664.59;10317485;28;20061;-52
2022/05/03 02:37:32;;;;;;;2.58;2.38;;;;;;;19.24;46.08;96648.38;10325900;28;20054;-51
2022/05/03 02:42:52;;;;;;;2.63;2.42;;;;;;;19.24;46.01;96653.78;10319513;28;20058;-53
2022/05/03 02:48:18;;;;;;;2.47;2.28;;;;;;;19.24;45.98;96651.09;10344164;28;20049;-52
2022/05/03 02:53:51;;;;;;;2.55;2.35;;;;;;;19.23;46.00;96653.00;10327757;28;20043;-51
2022/05/03 03:01:47;;;;;;;2.58;2.38;;;;;;;19.23;46.07;96649.50;10305935;28;20058;-50
2022/05/03 03:05:12;;;;;;;3.00;2.70;;;;;;;19.21;46.07;96655.25;10314623;28;20046;-53
2022/05/03 03:10:38;;;;;;;2.95;2.50;;;;;;;19.22;46.00;96658.72;10318851;28;20298;-51
2022/05/03 03:15:57;;;;;;;2.50;2.30;;;;;;;19.21;46.00;96660.63;10329541;28;20122;-52
2022/05/03 03:21:19;;;;;;;2.75;2.55;;;;;;;19.20;45.94;96659.03;10343159;28;20053;-52
2022/05/03 03:26:41;;;;;;;2.40;2.20;;;;;;;19.20;45.90;96652.84;10335013;28;20100;-51
2022/05/03 03:32:01;;;;;;;2.42;2.22;;;;;;;19.20;45.94;96642.06;10316570;28;20055;-53
2022/05/03 03:37:23;;;;;;;2.75;2.45;;;;;;;19.18;45.97;96642.38;10320851;28;20552;-51
2022/05/03 03:42:45;;;;;;;2.75;2.40;;;;;;;19.18;45.89;96642.38;10327211;28;20100;-51
2022/05/03 03:48:05;;;;;;;2.60;2.40;;;;;;;19.18;45.91;96642.38;10321452;28;20388;-53
2022/05/03 03:53:25;;;;;;;2.25;2.05;;;;;;;19.18;45.98;96639.69;10315305;28;20054;-51
2022/05/03 03:58:46;;;;;;;2.60;2.40;;;;;;;19.18;45.82;96636.97;10337285;28;20129;-52
2022/05/03 04:04:05;;;;;;;2.58;2.38;;;;;;;19.20;46.26;96637.44;10333175;28;20049;-51
2022/05/03 04:09:27;;;;;;;2.83;2.00;;;;;;;19.22;46.18;96647.91;10340917;28;20482;-51
2022/05/03 04:14:47;;;;;;;2.28;2.08;;;;;;;19.23;46.24;96641.38;10340751;28;20062;-51
2022/05/03 04:20:07;;;;;;;2.58;2.38;;;;;;;19.25;46.26;96648.06;10335545;28;20049;-52
2022/05/03 04:25:27;;;;;;;2.30;2.10;;;;;;;19.27;46.13;96648.53;10340064;28;20053;-52
2022/05/03 04:30:47;;;;;;;5.35;2.50;;;;;;;19.30;46.35;96641.69;10341531;28;20062;-49
2022/05/03 04:36:06;;;;;;;2.83;2.17;;;;;;;19.33;46.69;96644.53;10303522;28;20058;-52
2022/05/03 04:41:26;;;;;;;3.15;2.42;;;;;;;19.36;46.66;96657.38;10304811;28;20060;-51
2022/05/03 04:46:45;;;;;;;2.40;2.20;;;;;;;19.40;46.81;96660.22;10312664;28;20057;-50
2022/05/03 04:52:05;;;;;;;2.65;2.45;;;;;;;19.43;46.91;96654.16;10330219;28;20046;-53
2022/05/03 04:57:24;;;;;;;2.63;2.30;;;;;;;19.47;46.67;96654.31;10346210;28;20053;-51
2022/05/03 05:02:44;;;;;;;2.75;2.55;;;;;;;19.48;46.38;96656.69;10323240;28;20054;-51
2022/05/03 05:08:04;;;;;;;7.30;4.40;;;;;;;19.51;45.86;96660.63;10319751;28;20062;-50
2022/05/03 05:13:23;;;;;;;3.25;2.75;;;;;;;19.51;45.71;96664.13;10334094;28;20190;-51
2022/05/03 05:18:43;;;;;;;7.55;3.33;;;;;;;19.53;46.23;96663.81;10333412;28;20054;-50
2022/05/03 05:24:03;;;;;;;8.27;4.03;;;;;;;19.56;46.22;96671.25;10340534;28;20057;-50
2022/05/03 05:29:23;;;;;;;6.32;3.92;;;;;;;19.59;46.33;96664.41;10336151;28;20050;-52
2022/05/03 05:34:42;;;;;;;8.40;4.20;;;;;;;19.61;46.31;96662.94;10322445;28;20398;-52
2022/05/03 05:40:02;;;;;;;7.53;4.38;;;;;;;19.65;46.23;96671.19;10326126;28;20051;-53
2022/05/03 05:45:21;;;;;;;9.65;4.45;;;;;;;19.67;46.20;96682.47;10330406;28;20121;-52
2022/05/03 05:50:41;;;;;;;6.97;4.32;;;;;;;19.71;46.22;96680.69;10316548;28;20082;-51
2022/05/03 05:56:02;;;;;;;6.63;3.90;;;;;;;19.73;46.21;96684.69;10305696;28;20574;-52
2022/05/03 06:01:26;;;;;;;7.75;4.15;;;;;;;19.75;46.14;96681.66;10319057;28;20057;-50
2022/05/03 06:06:45;;;;;;;8.13;4.32;;;;;;;19.77;46.10;96690.22;10317573;28;20039;-53
2022/05/03 06:12:05;;;;;;;6.95;4.20;;;;;;;19.79;46.01;96690.69;10317763;28;20466;-53
2022/05/03 06:17:24;;;;;;;6.28;3.80;;;;;;;19.81;46.01;96691.16;10321855;28;20053;-52
2022/05/03 06:22:44;;;;;;;8.52;4.10;;;;;;;19.82;45.96;96692.75;10309800;28;20055;-53
2022/05/03 06:28:04;;;;;;;7.90;4.20;;;;;;;19.85;45.91;96697.47;10321237;28;20051;-52
2022/05/03 06:33:23;;;;;;;5.60;3.85;;;;;;;19.85;45.87;96696.69;10308599;28;20050;-53
2022/05/03 06:38:43;;;;;;;8.85;4.10;;;;;;;19.87;45.81;96705.28;10329948;28;20046;-51
2022/05/03 06:44:03;;;;;;;9.30;4.68;;;;;;;19.88;45.68;96706.88;10344808;28;20049;-50
2022/05/03 06:49:23;;;;;;;6.05;3.60;;;;;;;19.88;45.76;96710.34;10341786;28;20057;-51
2022/05/03 06:54:42;;;;;;;6.20;3.63;;;;;;;19.88;45.66;96718.47;10319238;28;20054;-50
2022/05/03 07:00:04;;;;;;;4.65;3.67;;;;;;;19.91;45.64;96725.13;10327525;28;20054;-51
2022/05/03 07:05:23;;;;;;;6.03;3.90;;;;;;;19.92;45.58;96729.44;10315436;28;20082;-53
2022/05/03 07:10:44;;;;;;;4.95;3.70;;;;;;;19.93;45.52;96720.19;10312115;28;20515;-53
2022/05/03 07:16:03;;;;;;;5.35;3.25;;;;;;;19.93;45.53;96726.41;10294831;28;20070;-52
2022/05/03 07:27:01;;;;;;;9.77;4.00;;;;;;;19.95;45.48;96728.75;10331562;28;20046;-50
2022/05/03 07:32:21;;;;;;;5.70;3.55;;;;;;;19.97;45.34;96731.13;10319809;28;20047;-49
2022/05/03 07:37:40;;;;;;;4.78;3.53;;;;;;;19.97;45.32;96731.13;10312324;28;20047;-52
2022/05/03 07:43:03;;;;;;;4.97;3.30;;;;;;;19.97;45.29;96736.53;10316454;28;20062;-51
2022/05/03 07:48:22;;;;;;;5.38;3.63;;;;;;;19.98;45.10;96735.44;10324624;28;20058;-49
2022/05/03 07:53:42;;;;;;;4.38;3.50;;;;;;;19.98;45.17;96740.84;10323519;28;20050;-51
2022/05/03 07:59:03;;;;;;;3.95;3.33;;;;;;;19.99;44.93;96739.72;10332826;28;20035;-51
2022/05/03 08:04:22;;;;;;;5.70;4.25;;;;;;;20.00;45.08;96741.31;10338595;28;20113;-52
2022/05/03 08:09:42;;;;;;;6.15;3.63;;;;;;;20.00;45.11;96746.72;10324714;28;20409;-52
2022/05/03 08:15:03;;;;;;;4.07;3.38;;;;;;;20.00;44.99;96755.59;10320385;28;20051;-52
2022/05/03 08:20:22;;;;;;;4.68;3.70;;;;;;;20.00;45.07;96758.31;10329277;28;20043;-51
2022/05/03 08:25:42;;;;;;;4.97;3.55;;;;;;;20.01;45.01;96757.19;10328468;28;20042;-52
2022/05/03 08:31:03;;;;;;;4.85;3.50;;;;;;;20.02;44.92;96760.69;10330480;28;20552;-52
2022/05/03 08:36:22;;;;;;;4.25;3.40;;;;;;;20.02;44.98;96761.47;10329435;28;20398;-49
2022/05/03 08:47:20;;;;;;;4.53;3.20;;;;;;;20.02;44.86;96769.59;10323687;28;20050;-50
2022/05/03 08:52:55;;;;;;;6.28;3.55;;;;;;;20.02;44.92;96764.19;10328116;28;20658;-52
2022/05/03 08:58:18;;;;;;;3.50;3.20;;;;;;;20.02;44.81;96772.28;10342430;28;20378;-52
2022/05/03 09:03:37;;;;;;;4.72;3.20;;;;;;;20.03;44.79;96770.38;10330188;28;20047;-51
2022/05/03 09:08:59;;;;;;;4.20;3.30;;;;;;;20.02;44.88;96766.88;10329082;28;20129;-49
2022/05/03 09:14:39;;;;;;;3.75;3.35;;;;;;;20.02;45.02;96761.47;10329878;28;20071;-50
2022/05/03 09:19:58;;;;;;;4.18;3.30;;;;;;;20.03;44.84;96767.66;10326419;28;20041;-52
2022/05/03 09:25:18;;;;;;;3.20;2.90;;;;;;;20.04;44.77;96769.28;10330620;28;20058;-52
2022/05/03 09:30:45;;;;;;;3.22;2.92;;;;;;;20.04;44.79;96766.56;10330586;28;20050;-52
2022/05/03 09:36:10;;;;;;;3.35;2.80;;;;;;;20.03;44.79;96752.25;10328604;28;20057;-52
2022/05/03 09:41:30;;;;;;;3.20;2.90;;;;;;;20.03;44.78;96757.66;10318334;28;20137;-51
2022/05/03 09:46:51;;;;;;;3.75;3.10;;;;;;;20.04;44.77;96758.47;10325600;28;20056;-51
2022/05/03 09:52:30;;;;;;;3.35;3.05;;;;;;;20.04;44.86;96748.41;10326387;28;20088;-50
2022/05/03 09:57:50;;;;;;;4.22;3.17;;;;;;;20.04;44.71;96751.13;10326359;28;20050;-51
2022/05/03 10:03:10;;;;;;;3.42;2.97;;;;;;;20.03;44.75;96746.03;10328341;28;20148;-49
2022/05/03 10:08:30;;;;;;;3.28;2.97;;;;;;;20.04;44.71;96748.41;10340909;28;20046;-50
2022/05/03 10:13:54;;;;;;;3.65;3.05;;;;;;;20.04;44.59;96747.63;10330842;28;20061;-51
2022/05/03 10:24:55;;;;;;;3.72;3.10;;;;;;;20.04;44.65;96734.91;10317452;28;20610;-52
2022/05/03 10:30:23;;;;;;;3.38;3.08;;;;;;;20.03;44.76;96732.53;10340673;28;20042;-50
2022/05/03 10:35:42;;;;;;;3.35;3.05;;;;;;;20.04;44.77;96728.72;10324866;28;20054;-51
2022/05/03 10:41:04;;;;;;;3.00;2.75;;;;;;;20.03;44.69;96729.81;10326226;28;20062;-51
2022/05/03 10:46:24;;;;;;;3.58;2.83;;;;;;;20.03;44.72;96710.88;10325695;28;20405;-51
2022/05/03 10:51:43;;;;;;;3.55;2.97;;;;;;;20.02;44.62;96712.03;10319497;28;20054;-52
2022/05/03 10:57:09;;;;;;;3.17;2.88;;;;;;;20.02;44.67;96715.50;10337570;28;20038;-52
2022/05/03 11:02:28;;;;;;;3.65;3.10;;;;;;;20.01;44.66;96715.84;10313998;28;20457;-51
2022/05/03 11:08:16;;;;;;;3.20;2.90;;;;;;;20.02;44.69;96709.31;10311504;28;20065;-51
2022/05/03 11:13:40;;;;;;;2.95;2.70;;;;;;;20.01;44.74;96703.09;10329964;28;20084;-50
2022/05/03 11:19:30;;;;;;;3.40;3.10;;;;;;;20.00;44.70;96703.44;10331580;28;20042;-52
2022/05/03 11:24:52;;;;;;;3.13;2.80;;;;;;;20.00;44.76;96696.13;10319631;28;20054;-52
2022/05/03 11:30:12;;;;;;;3.10;2.80;;;;;;;20.00;44.71;96693.41;10300569;28;20051;-52
2022/05/03 11:35:32;;;;;;;3.90;2.90;;;;;;;20.00;44.63;96696.13;10289568;28;20062;-49
2022/05/03 11:40:51;;;;;;;3.75;3.15;;;;;;;20.01;44.58;96694.19;10302400;28;20042;-52
2022/05/03 11:46:12;;;;;;;2.97;2.67;;;;;;;20.01;44.62;96694.19;10316070;28;20054;-52
2022/05/03 11:57:40;;;;;;;3.33;3.03;;;;;;;20.00;44.49;96687.22;10319662;28;20177;-51
2022/05/03 12:03:00;;;;;;;4.88;2.80;;;;;;;20.00;44.69;96687.22;10309337;28;20479;-52
2022/05/03 12:08:20;;;;;;;3.03;2.70;;;;;;;20.00;44.98;96685.31;10322449;28;20038;-52
2022/05/03 12:13:39;;;;;;;3.28;2.90;;;;;;;20.00;44.42;96682.59;10311472;28;20063;-51
2022/05/03 12:19:00;;;;;;;3.28;2.97;;;;;;;19.99;44.84;96677.50;10311954;28;20054;-49
2022/05/03 12:24:33;;;;;;;4.80;4.30;;;;;;;19.95;41.43;96664.66;10334449;28;20046;-49
2022/05/03 12:29:52;;;;;;;4.97;4.43;;;;;;;19.87;40.21;96662.81;10336538;28;20046;-52
2022/05/03 12:35:14;;;;;;;4.57;4.07;;;;;;;19.83;39.57;96652.97;10339996;28;20493;-51
2022/05/03 12:40:59;;;;;;;4.95;4.00;;;;;;;19.75;38.47;96654.63;10328582;28;20059;-51
2022/05/03 12:46:26;;;;;;;4.70;4.30;;;;;;;19.70;38.77;96652.88;10331548;28;20049;-52
2022/05/03 12:51:47;;;;;;;4.90;4.50;;;;;;;19.68;39.63;96654.31;10299029;28;20417;-52
2022/05/03 13:02:49;;;;;;;4.93;4.00;;;;;;;19.66;40.02;96645.75;10323784;28;20565;-52
2022/05/03 13:08:08;;;;;;;4.15;3.80;;;;;;;19.70;40.59;96639.38;10320351;28;20218;-51
2022/05/03 13:13:28;;;;;;;3.55;3.25;;;;;;;19.75;41.24;96643.81;10322854;28;20054;-52
2022/05/03 13:18:48;;;;;;;3.88;3.50;;;;;;;19.79;41.62;96639.34;10319693;28;20050;-51
2022/05/03 13:24:08;;;;;;;4.57;3.63;;;;;;;19.82;41.82;96630.56;10336254;28;20385;-52
2022/05/03 13:29:30;;;;;;;4.72;3.63;;;;;;;19.83;42.22;96624.03;10327611;28;20054;-51
2022/05/03 13:34:49;;;;;;;4.90;3.75;;;;;;;19.84;42.18;96625.63;10320700;28;20060;-52
2022/05/03 13:45:48;;;;;;;5.32;3.67;;;;;;;19.84;41.42;96631.03;10328859;28;20058;-50
2022/05/03 13:51:08;;;;;;;6.13;4.53;;;;;;;19.85;41.11;96627.19;10339921;28;20045;-51
2022/05/03 13:56:28;;;;;;;4.75;4.22;;;;;;;19.85;40.88;96627.19;10344694;28;20057;-51
2022/05/03 14:01:48;;;;;;;4.60;4.10;;;;;;;19.85;40.81;96631.81;10331359;28;20777;-52
2022/05/03 14:07:08;;;;;;;4.32;3.92;;;;;;;19.84;40.43;96622.16;10338225;28;20504;-52
2022/05/03 14:12:27;;;;;;;6.00;4.20;;;;;;;19.84;40.11;96616.75;10325550;28;20264;-51
2022/05/03 14:17:47;;;;;;;4.47;4.05;;;;;;;19.85;40.24;96619.09;10321428;28;20397;-51
2022/05/03 14:23:06;;;;;;;3.97;3.58;;;;;;;19.86;40.18;96617.19;10339867;28;20042;-52
2022/05/03 14:28:26;;;;;;;5.10;4.10;;;;;;;19.85;39.93;96610.97;10342219;28;20046;-50
2022/05/03 14:33:45;;;;;;;6.28;3.85;;;;;;;19.85;39.25;96612.91;10323507;28;20062;-51
2022/05/03 14:39:04;;;;;;;3.78;3.47;;;;;;;19.85;39.21;96610.97;10327172;28;20046;-52
2022/05/03 14:44:24;;;;;;;4.35;3.28;;;;;;;19.85;39.26;96602.09;10335086;28;20382;-50
2022/05/03 14:49:45;;;;;;;4.93;3.47;;;;;;;19.85;38.96;96608.28;10328791;28;20051;-50
2022/05/03 14:55:04;;;;;;;4.00;3.60;;;;;;;19.85;38.79;96605.56;10323104;28;20053;-52
2022/05/03 15:06:02;;;;;;;3.97;3.60;;;;;;;19.84;38.60;96612.13;10319412;28;20054;-50
2022/05/03 15:11:22;;;;;;;5.38;3.42;;;;;;;19.83;38.71;96607.81;10315429;28;20109;-51
2022/05/03 15:16:41;;;;;;;4.72;3.35;;;;;;;19.83;38.72;96610.53;10311408;28;20066;-52
2022/05/03 15:22:01;;;;;;;4.28;3.42;;;;;;;19.84;38.63;96608.63;10325218;28;20054;-49
2022/05/03 15:27:20;;;;;;;3.63;3.17;;;;;;;19.84;38.44;96609.41;10325259;28;20081;-50
2022/05/03 15:32:39;;;;;;;3.22;2.92;;;;;;;19.81;38.23;96610.06;10321011;28;20058;-50
2022/05/03 15:37:59;;;;;;;3.55;3.20;;;;;;;19.81;38.02;96604.66;10333462;28;20046;-52
2022/05/03 15:43:19;;;;;;;4.00;3.20;;;;;;;19.79;38.28;96601.50;10323887;28;20056;-52
2022/05/03 15:48:39;;;;;;;3.45;3.15;;;;;;;19.81;38.23;96604.66;10333439;28;20046;-49
2022/05/03 15:53:58;;;;;;;3.50;3.10;;;;;;;19.79;38.32;96598.78;10333462;28;20042;-51
2022/05/03 15:59:17;;;;;;;4.05;3.50;;;;;;;19.79;38.45;96603.41;10318486;28;20073;-50
2022/05/03 16:04:36;;;;;;;3.95;3.30;;;;;;;19.79;38.70;96608.81;10336550;28;20042;-51
2022/05/03 16:09:57;;;;;;;5.13;3.83;;;;;;;19.80;38.54;96613.09;10327457;28;20551;-51
2022/05/03 16:15:17;;;;;;;6.38;3.83;;;;;;;19.78;38.70;96616.13;10313831;28;20096;-52
2022/05/03 16:20:37;;;;;;;5.57;4.00;;;;;;;19.78;38.50;96620.72;10315752;28;20065;-52
2022/05/03 16:25:57;;;;;;;4.22;3.83;;;;;;;19.77;38.65;96622.66;10323932;28;20050;-52
2022/05/03 16:31:16;;;;;;;4.57;4.03;;;;;;;19.77;38.82;96621.88;10319973;28;20490;-52
2022/05/03 16:42:17;;;;;;;4.22;3.90;;;;;;;19.74;39.29;96612.53;10322768;28;20105;-52
2022/05/03 16:47:37;;;;;;;6.32;3.90;;;;;;;19.74;39.38;96621.41;10319265;28;20042;-50
2022/05/03 16:52:58;;;;;;;5.00;4.13;;;;;;;19.73;39.50;96621.72;10333831;28;20073;-51
2022/05/03 16:58:18;;;;;;;5.75;4.63;;;;;;;19.73;39.23;96625.22;10328046;28;20054;-51
2022/05/03 17:03:37;;;;;;;5.97;3.92;;;;;;;19.69;38.62;96624.25;10342333;28;20053;-52
2022/05/03 17:08:56;;;;;;;4.60;3.92;;;;;;;19.69;39.13;96628.88;10334195;28;20585;-52
2022/05/03 17:14:17;;;;;;;4.63;3.63;;;;;;;19.68;38.75;96632.69;10332231;28;20070;-51
2022/05/03 17:19:36;;;;;;;5.35;3.70;;;;;;;19.67;38.75;96640.03;10332277;28;20483;-51
2022/05/03 17:24:56;;;;;;;4.43;3.53;;;;;;;19.66;38.62;96648.44;10332311;28;20053;-51
2022/05/03 17:30:15;;;;;;;3.65;3.35;;;;;;;19.66;38.68;96653.84;10330002;28;20050;-51
2022/05/03 17:35:35;;;;;;;7.05;3.30;;;;;;;19.66;39.08;96657.38;10332013;28;20046;-50
2022/05/03 17:40:55;;;;;;;3.72;3.20;;;;;;;19.69;39.80;96658.63;10329092;28;20101;-50
2022/05/03 17:46:15;;;;;;;3.35;3.05;;;;;;;19.71;40.11;96661.78;10330915;28;20050;-52
2022/05/03 17:57:15;;;;;;;4.53;3.30;;;;;;;19.74;40.64;96680.09;10331193;28;20054;-50
2022/05/03 18:02:37;;;;;;;4.35;3.10;;;;;;;19.76;41.07;96677.84;10327747;28;20054;-52
2022/05/03 18:07:57;;;;;;;5.60;3.45;;;;;;;19.78;41.24;96680.19;10309907;28;20039;-51
2022/05/03 18:13:16;;;;;;;3.83;3.30;;;;;;;19.80;41.23;96683.38;10315033;28;20063;-52
2022/05/03 18:18:35;;;;;;;3.63;3.30;;;;;;;19.82;41.21;96689.25;10341830;28;20047;-49
2022/05/03 18:23:55;;;;;;;4.65;3.53;;;;;;;19.84;41.48;96706.72;10332961;28;20050;-52
2022/05/03 18:29:15;;;;;;;3.58;3.28;;;;;;;19.86;41.49;96706.41;10332059;28;20057;-49
2022/05/03 18:34:35;;;;;;;4.10;3.53;;;;;;;19.88;41.56;96709.56;10336660;28;20453;-52
2022/05/03 18:39:55;;;;;;;6.68;3.45;;;;;;;19.89;41.72;96724.66;10334597;28;20052;-52
2022/05/03 18:45:14;;;;;;;6.03;3.72;;;;;;;19.90;41.90;96747.88;10324552;28;20104;-49
2022/05/03 18:50:34;;;;;;;5.75;3.22;;;;;;;19.92;42.05;96748.34;10342963;28;20100;-51
2022/05/03 18:55:53;;;;;;;4.18;3.20;;;;;;;19.94;42.13;96771.22;10305865;28;20114;-52
2022/05/03 19:01:13;;;;;;;5.07;3.63;;;;;;;19.95;42.06;96769.31;10326055;28;20054;-49
2022/05/03 19:06:32;;;;;;;4.00;3.25;;;;;;;19.95;42.28;96762.00;10327857;28;20054;-50
2022/05/03 19:11:52;;;;;;;6.05;3.42;;;;;;;19.98;42.29;96770.59;10326469;28;20053;-49
2022/05/03 19:17:11;;;;;;;6.10;3.35;;;;;;;19.99;42.28;96782.97;10319109;28;20560;-50
2022/05/03 19:22:33;;;;;;;4.68;3.08;;;;;;;20.01;42.36;96776.09;10325869;28;20057;-51
2022/05/03 19:33:31;;;;;;;4.43;2.93;;;;;;;20.02;42.45;96771.50;10324956;28;20058;-52
2022/05/03 19:38:50;;;;;;;3.45;3.15;;;;;;;20.03;42.45;96778.50;10319885;28;20054;-51
2022/05/03 19:44:10;;;;;;;3.33;3.03;;;;;;;20.03;42.37;96767.66;10328931;28;20077;-51
2022/05/03 19:49:30;;;;;;;5.85;3.00;;;;;;;20.03;42.66;96773.91;10342434;28;20513;-52
2022/05/03 19:54:50;;;;;;;3.13;2.90;;;;;;;20.05;42.38;96778.94;10320620;28;20050;-51
2022/05/03 20:00:12;;;;;;;3.40;2.97;;;;;;;20.05;42.61;96771.66;10302527;28;20062;-52
2022/05/03 20:05:41;;;;;;;4.40;3.00;;;;;;;20.08;42.59;96781.81;10327407;28;20600;-52
2022/05/03 20:11:04;;;;;;;3.78;2.97;;;;;;;20.09;42.71;96777.19;10321716;28;20050;-50
2022/05/03 20:16:24;;;;;;;6.00;3.00;;;;;;;20.11;42.68;96780.34;10321323;28;20054;-52
2022/05/03 20:21:43;;;;;;;3.17;2.88;;;;;;;20.13;42.75;96783.50;10326991;28;20057;-52
2022/05/03 20:27:04;;;;;;;4.90;2.75;;;;;;;20.17;42.75;96786.34;10320588;28;20417;-53
2022/05/03 20:32:25;;;;;;;3.83;3.22;;;;;;;20.17;42.74;96791.75;10321725;28;20051;-50
2022/05/03 20:37:46;;;;;;;3.00;2.70;;;;;;;20.17;42.71;96786.34;10336703;28;20398;-52
2022/05/03 20:43:06;;;;;;;2.97;2.63;;;;;;;20.19;42.62;96790.34;10328859;28;20050;-52
2022/05/03 20:54:03;;;;;;;3.37;2.63;;;;;;;20.22;42.63;96794.28;10328665;28;20054;-51
2022/05/03 20:59:23;;;;;;;3.15;2.92;;;;;;;20.23;42.59;96799.38;10329514;28;20054;-51
2022/05/03 21:04:42;;;;;;;2.90;2.60;;;;;;;20.22;42.58;96795.06;10342245;28;20046;-52
2022/05/03 21:10:06;;;;;;;3.35;2.97;;;;;;;20.23;42.54;96796.66;10327971;28;20049;-53
2022/05/03 21:15:26;;;;;;;2.97;2.67;;;;;;;20.23;42.51;96793.97;10318529;28;20054;-53
2022/05/03 21:20:46;;;;;;;2.83;2.63;;;;;;;20.25;42.55;96797.13;10330290;28;20069;-53
2022/05/03 21:26:06;;;;;;;4.50;2.70;;;;;;;20.25;42.51;96797.13;10343912;28;20070;-53
2022/05/03 21:31:27;;;;;;;3.92;2.90;;;;;;;20.25;42.51;96791.72;10329967;28;20061;-53
2022/05/03 21:36:48;;;;;;;2.78;2.58;;;;;;;20.25;42.44;96794.44;10326501;28;20050;-52
2022/05/03 21:42:08;;;;;;;3.28;2.97;;;;;;;20.25;42.52;96785.53;10310447;28;20055;-52
2022/05/03 21:47:27;;;;;;;2.75;2.55;;;;;;;20.27;42.48;96788.69;10356644;28;20046;-51
2022/05/03 21:52:46;;;;;;;2.80;2.60;;;;;;;20.27;42.42;96783.28;10338921;28;20086;-53
2022/05/03 21:58:06;;;;;;;3.95;2.83;;;;;;;20.25;42.35;96786.31;10307244;28;20077;-51
2022/05/03 22:03:26;;;;;;;3.22;2.92;;;;;;;20.27;42.37;96788.69;10322390;28;20062;-50
2022/05/03 22:08:45;;;;;;;3.10;2.75;;;;;;;20.27;42.36;96788.69;10341320;28;20039;-52
2022/05/03 22:14:04;;;;;;;3.10;2.80;;;;;;;20.26;42.31;96793.28;10319580;28;20174;-51
2022/05/03 22:19:24;;;;;;;2.90;2.70;;;;;;;20.25;42.33;96783.59;10328401;28;20046;-52
2022/05/03 22:24:44;;;;;;;3.60;2.83;;;;;;;20.25;42.38;96785.53;10336987;28;20069;-52
2022/05/03 22:30:04;;;;;;;2.90;2.70;;;;;;;20.26;42.34;96787.09;10331628;28;20104;-52
2022/05/03 22:35:24;;;;;;;2.88;2.67;;;;;;;20.25;42.34;96786.31;10309757;28;20050;-52
2022/05/03 22:40:43;;;;;;;2.95;2.65;;;;;;;20.24;42.33;96792.84;10317366;28;20047;-52
2022/05/03 22:46:03;;;;;;;2.70;2.50;;;;;;;20.25;42.37;96788.22;10314104;28;20057;-52
2022/05/03 22:51:22;;;;;;;2.97;2.78;;;;;;;20.24;42.25;96781.22;10318726;28;20046;-52
2022/05/03 22:56:41;;;;;;;2.78;2.50;;;;;;;20.24;42.33;96782.00;10331510;28;20097;-52
2022/05/03 23:02:00;;;;;;;2.58;2.38;;;;;;;20.24;42.39;96789.34;10327371;28;20128;-52
2022/05/03 23:07:20;;;;;;;2.95;2.70;;;;;;;20.22;42.34;96792.38;10325226;28;20065;-52
2022/05/03 23:12:40;;;;;;;2.67;2.42;;;;;;;20.22;42.42;96792.38;10327164;28;20069;-51
2022/05/03 23:17:59;;;;;;;2.72;2.53;;;;;;;20.21;42.35;96801.63;10322770;28;20046;-53
2022/05/03 23:23:20;;;;;;;2.33;2.13;;;;;;;20.22;42.38;96813.22;10307447;28;20062;-52
2022/05/03 23:28:39;;;;;;;2.22;2.03;;;;;;;20.21;42.33;96800.81;10328360;28;20050;-52
2022/05/03 23:35:06;;;;;;;2.75;2.45;;;;;;;20.20;42.40;96797.31;10328617;28;20053;-53
2022/05/03 23:39:39;;;;;;;3.17;2.55;;;;;;;20.21;42.40;96798.09;10317282;28;20145;-52
2022/05/03 23:46:06;;;;;;;2.58;2.38;;;;;;;20.20;42.53;96801.94;10324679;28;20047;-51
2022/05/03 23:50:38;;;;;;;2.90;2.65;;;;;;;20.19;42.37;96797.63;10319086;28;20054;-51
2022/05/03 23:55:58;;;;;;;2.53;2.33;;;;;;;20.18;42.38;96799.56;10326588;28;20088;-53
